createdAt,value
2018-06-15T00:02:22.077Z,55.70
2018-06-15T00:04:51.071Z,54.80
2018-06-15T00:07:19.891Z,56.93
2018-06-15T00:09:48.760Z,53.70
2018-06-15T00:12:17.654Z,60.88
2018-06-15T00:14:46.532Z,57.43
2018-06-15T00:17:15.375Z,53.60
2018-06-15T00:19:44.253Z,50.00
2018-06-15T00:22:13.144Z,51.40
2018-06-15T00:24:42.028Z,54.33
2018-06-15T00:27:10.879Z,50.97
2018-06-15T00:29:39.740Z,54.67
2018-06-15T00:32:08.621Z,50.87
2018-06-15T00:34:37.500Z,52.80
2018-06-15T00:37:06.388Z,53.57
2018-06-15T00:39:35.260Z,51.90
2018-06-15T00:42:04.149Z,50.33
2018-06-15T00:44:33.049Z,54.47
2018-06-15T00:47:01.933Z,49.23
2018-06-15T00:49:30.827Z,48.60
2018-06-15T00:51:59.730Z,53.57
2018-06-15T00:54:28.619Z,51.83
2018-06-15T00:57:33.869Z,50.57
2018-06-15T01:00:02.752Z,56.23
2018-06-15T01:02:31.625Z,58.10
2018-06-15T01:05:00.539Z,56.07
2018-06-15T01:07:29.346Z,65.75
2018-06-15T01:09:58.222Z,52.53
2018-06-15T01:12:27.082Z,56.60
2018-06-15T01:14:55.940Z,59.20
2018-06-15T01:17:24.776Z,51.23
2018-06-15T01:19:53.679Z,61.20
2018-06-15T01:22:22.560Z,57.87
2018-06-15T01:24:51.450Z,64.03
2018-06-15T01:27:20.344Z,64.97
2018-06-15T01:29:49.222Z,63.93
2018-06-15T01:32:18.120Z,74.55
2018-06-15T01:34:47.008Z,66.53
2018-06-15T01:37:15.896Z,67.43
2018-06-15T01:39:44.772Z,57.27
2018-06-15T01:42:13.627Z,76.95
2018-06-15T01:44:42.495Z,61.43
2018-06-15T01:47:11.381Z,61.47
2018-06-15T01:49:40.290Z,62.73
2018-06-15T01:52:09.207Z,60.77
2018-06-15T01:54:38.100Z,62.40
2018-06-15T01:57:06.974Z,67.50
2018-06-15T01:59:35.865Z,62.00
2018-06-15T02:02:04.729Z,67.03
2018-06-15T02:04:33.576Z,68.37
2018-06-15T02:07:02.484Z,73.03
2018-06-15T02:09:31.410Z,73.47
2018-06-15T02:12:00.278Z,77.33
2018-06-15T02:14:29.155Z,69.93
2018-06-15T02:16:58.032Z,76.10
2018-06-15T02:19:26.882Z,93.70
2018-06-15T02:21:55.749Z,77.00
2018-06-15T02:24:24.629Z,77.03
2018-06-15T02:26:53.496Z,71.97
2018-06-15T02:29:22.403Z,70.17
2018-06-15T02:31:51.252Z,76.17
2018-06-15T02:34:20.126Z,86.72
2018-06-15T02:36:49.011Z,69.47
2018-06-15T02:39:17.849Z,73.13
2018-06-15T02:41:46.686Z,76.23
2018-06-15T02:44:15.565Z,80.63
2018-06-15T02:46:44.456Z,73.33
2018-06-15T02:49:13.326Z,74.90
2018-06-15T02:51:42.192Z,74.70
2018-06-15T02:54:11.072Z,74.80
2018-06-15T02:56:39.913Z,75.90
2018-06-15T02:59:08.815Z,79.53
2018-06-15T03:01:37.680Z,80.03
2018-06-15T03:04:06.551Z,81.67
2018-06-15T03:06:35.466Z,72.87
2018-06-15T03:09:05.846Z,78.73
2018-06-15T03:11:34.750Z,72.63
2018-06-15T03:14:03.681Z,84.73
2018-06-15T03:16:32.574Z,80.93
2018-06-15T03:19:01.477Z,84.10
2018-06-15T03:21:30.365Z,87.87
2018-06-15T03:23:59.202Z,83.73
2018-06-15T03:26:28.078Z,80.40
2018-06-15T03:28:56.930Z,81.43
2018-06-15T03:31:25.824Z,85.60
2018-06-15T03:33:54.864Z,78.93
2018-06-15T03:36:23.755Z,76.17
2018-06-15T03:38:52.638Z,79.23
2018-06-15T03:41:21.492Z,71.60
2018-06-15T03:43:50.361Z,82.03
2018-06-15T03:46:19.278Z,75.17
2018-06-15T03:48:48.323Z,87.95
2018-06-15T03:51:17.203Z,75.73
2018-06-15T03:53:46.070Z,71.90
2018-06-15T03:56:14.965Z,73.40
2018-06-15T03:58:43.823Z,77.50
2018-06-15T04:01:12.672Z,77.07
2018-06-15T04:03:41.549Z,83.77
2018-06-15T04:06:10.406Z,78.77
2018-06-15T04:08:39.242Z,91.30
2018-06-15T04:11:08.081Z,84.30
2018-06-15T04:13:37.062Z,83.20
2018-06-15T04:16:05.990Z,91.10
2018-06-15T04:18:34.899Z,83.13
2018-06-15T04:21:03.766Z,92.17
2018-06-15T04:23:32.625Z,89.20
2018-06-15T04:26:01.500Z,92.33
2018-06-15T04:28:30.350Z,88.00
2018-06-15T04:30:59.192Z,93.00
2018-06-15T04:33:28.073Z,89.97
2018-06-15T04:35:57.026Z,102.73
2018-06-15T04:38:25.850Z,100.47
2018-06-15T04:40:54.759Z,123.72
2018-06-15T04:43:23.656Z,119.65
2018-06-15T04:45:52.559Z,89.73
2018-06-15T04:48:21.400Z,87.70
2018-06-15T04:50:50.278Z,93.00
2018-06-15T04:53:19.132Z,88.30
2018-06-15T04:55:48.003Z,87.97
2018-06-15T04:58:16.854Z,90.33
2018-06-15T05:00:45.719Z,82.93
2018-06-15T05:03:15.187Z,93.47
2018-06-15T05:05:44.844Z,85.33
2018-06-15T05:08:13.732Z,96.97
2018-06-15T05:10:42.604Z,85.87
2018-06-15T05:13:11.745Z,86.80
2018-06-15T05:15:40.646Z,82.83
2018-06-15T05:18:09.465Z,85.87
2018-06-15T05:20:38.301Z,78.67
2018-06-15T05:23:07.159Z,80.07
2018-06-15T05:25:36.033Z,83.27
2018-06-15T05:28:04.903Z,75.93
2018-06-15T05:30:33.737Z,76.30
2018-06-15T05:33:02.641Z,79.13
2018-06-15T05:35:31.500Z,84.60
2018-06-15T05:38:00.361Z,78.90
2018-06-15T05:40:29.196Z,80.70
2018-06-15T05:42:58.063Z,78.13
2018-06-15T05:45:26.968Z,78.10
2018-06-15T05:47:55.840Z,79.10
2018-06-15T05:50:24.675Z,77.73
2018-06-15T05:52:53.524Z,82.00
2018-06-15T05:55:22.436Z,74.37
2018-06-15T05:57:51.272Z,75.40
2018-06-15T06:00:20.307Z,77.33
2018-06-15T06:02:49.170Z,75.87
2018-06-15T06:05:18.013Z,73.13
2018-06-15T06:07:46.891Z,69.00
2018-06-15T06:10:15.793Z,71.27
2018-06-15T06:12:44.673Z,71.53
2018-06-15T06:15:13.565Z,67.70
2018-06-15T06:17:42.543Z,73.70
2018-06-15T06:20:11.579Z,74.03
2018-06-15T06:22:40.438Z,79.40
2018-06-15T06:25:09.382Z,73.13
2018-06-15T06:27:38.266Z,68.40
2018-06-15T06:30:07.167Z,70.53
2018-06-15T06:32:36.103Z,67.77
2018-06-15T06:35:04.944Z,66.00
2018-06-15T06:37:33.851Z,70.47
2018-06-15T06:40:02.763Z,67.33
2018-06-15T06:42:31.663Z,65.07
2018-06-15T06:45:00.548Z,66.97
2018-06-15T06:47:29.433Z,64.20
2018-06-15T06:49:58.338Z,67.20
2018-06-15T06:52:27.217Z,67.23
2018-06-15T06:54:56.102Z,67.07
2018-06-15T06:57:24.956Z,67.07
2018-06-15T06:59:53.811Z,65.13
2018-06-15T07:02:22.669Z,67.10
2018-06-15T07:04:51.565Z,65.93
2018-06-15T07:07:20.490Z,65.33
2018-06-15T07:09:49.372Z,61.87
2018-06-15T07:12:18.292Z,60.17
2018-06-15T07:14:47.146Z,65.23
2018-06-15T07:17:16.025Z,60.60
2018-06-15T07:19:44.903Z,63.40
2018-06-15T07:22:13.792Z,58.43
2018-06-15T07:24:42.695Z,65.97
2018-06-15T07:27:11.573Z,61.17
2018-06-15T07:29:40.475Z,59.07
2018-06-15T07:32:09.457Z,61.33
2018-06-15T07:34:38.332Z,61.27
2018-06-15T07:37:07.342Z,66.47
2018-06-15T07:39:36.264Z,62.93
2018-06-15T07:42:05.222Z,65.97
2018-06-15T07:44:34.426Z,59.80
2018-06-15T07:47:03.717Z,55.37
2018-06-15T07:49:32.593Z,54.30
2018-06-15T07:52:01.454Z,54.90
2018-06-15T07:54:30.356Z,56.27
2018-06-15T07:56:59.297Z,57.53
2018-06-15T07:59:28.215Z,52.90
2018-06-15T08:01:57.060Z,50.93
2018-06-15T08:04:25.993Z,53.13
2018-06-15T08:06:54.852Z,56.08
2018-06-15T08:09:23.763Z,50.60
2018-06-15T08:11:52.627Z,48.27
2018-06-15T08:14:21.465Z,49.27
2018-06-15T08:16:50.306Z,52.57
2018-06-15T08:19:19.139Z,45.63
2018-06-15T08:21:47.991Z,49.37
2018-06-15T08:24:16.821Z,49.40
2018-06-15T08:26:45.676Z,50.40
2018-06-15T08:29:14.528Z,49.90
2018-06-15T08:31:43.367Z,47.40
2018-06-15T08:34:12.411Z,45.87
2018-06-15T08:36:43.042Z,42.13
2018-06-15T08:39:16.261Z,39.65
2018-06-15T08:41:45.067Z,35.80
2018-06-15T08:44:13.931Z,35.50
2018-06-15T08:46:42.832Z,36.68
2018-06-15T08:49:11.673Z,35.13
2018-06-15T08:51:40.508Z,35.25
2018-06-15T08:54:09.447Z,36.88
2018-06-15T08:56:38.313Z,35.90
2018-06-15T08:59:07.181Z,35.92
2018-06-15T09:01:36.045Z,36.20
2018-06-15T09:04:04.914Z,34.70
2018-06-15T09:06:33.749Z,35.50
2018-06-15T09:09:02.625Z,34.78
2018-06-15T09:11:31.508Z,35.95
2018-06-15T09:14:00.393Z,35.37
2018-06-15T09:16:29.253Z,36.63
2018-06-15T09:18:58.126Z,36.97
2018-06-15T09:21:26.988Z,38.60
2018-06-15T09:23:55.927Z,39.17
2018-06-15T09:26:24.824Z,43.33
2018-06-15T09:28:53.687Z,45.05
2018-06-15T09:31:22.641Z,39.10
2018-06-15T09:33:51.490Z,39.23
2018-06-15T09:36:20.414Z,39.97
2018-06-15T09:38:49.281Z,36.90
2018-06-15T09:41:18.132Z,33.57
2018-06-15T09:43:47.021Z,34.17
2018-06-15T09:46:15.929Z,33.77
2018-06-15T09:48:45.343Z,34.47
2018-06-15T09:51:15.516Z,32.85
2018-06-15T09:53:44.239Z,33.63
2018-06-15T09:56:13.279Z,33.92
2018-06-15T09:58:42.777Z,31.37
2018-06-15T10:01:11.986Z,29.85
2018-06-15T10:03:41.223Z,30.00
2018-06-15T10:06:10.181Z,29.48
2018-06-15T10:08:39.023Z,28.35
2018-06-15T10:11:07.892Z,28.75
2018-06-15T10:13:36.727Z,29.25
2018-06-15T10:16:05.747Z,26.80
2018-06-15T10:18:34.589Z,24.80
2018-06-15T10:21:03.489Z,25.80
2018-06-15T10:23:32.338Z,26.35
2018-06-15T10:26:01.197Z,22.45
2018-06-15T10:28:30.080Z,22.25
2018-06-15T10:30:58.938Z,20.08
2018-06-15T10:33:27.801Z,21.37
2018-06-15T10:35:57.043Z,19.80
2018-06-15T10:38:25.985Z,22.70
2018-06-15T10:40:54.851Z,15.15
2018-06-15T10:43:23.731Z,14.80
2018-06-15T10:45:52.599Z,17.95
2018-06-15T10:48:21.485Z,18.70
2018-06-15T10:50:50.410Z,19.92
2018-06-15T10:53:19.213Z,21.93
2018-06-15T10:55:48.078Z,22.62
2018-06-15T10:58:17.003Z,17.27
2018-06-15T11:00:45.862Z,19.23
2018-06-15T11:03:14.712Z,18.62
2018-06-15T11:05:43.621Z,18.70
2018-06-15T11:08:12.543Z,16.95
2018-06-15T11:10:41.433Z,15.72
2018-06-15T11:13:10.266Z,17.82
2018-06-15T11:15:39.131Z,18.65
2018-06-15T11:18:07.972Z,14.90
2018-06-15T11:20:36.861Z,15.23
2018-06-15T11:23:05.741Z,12.65
2018-06-15T11:25:34.673Z,15.15
2018-06-15T11:28:03.516Z,15.10
2018-06-15T11:30:32.366Z,16.93
2018-06-15T11:33:01.281Z,15.98
2018-06-15T11:35:30.180Z,19.00
2018-06-15T11:37:59.061Z,16.60
2018-06-15T11:40:28.060Z,11.53
2018-06-15T11:42:56.941Z,13.85
2018-06-15T11:45:25.893Z,14.20
2018-06-15T11:47:54.845Z,14.80
2018-06-15T11:50:23.864Z,15.15
2018-06-15T11:52:53.051Z,15.63
2018-06-15T11:55:21.966Z,14.13
2018-06-15T11:57:53.902Z,14.13
2018-06-15T12:00:22.788Z,13.45
2018-06-15T12:02:51.703Z,16.45
2018-06-15T12:05:20.603Z,19.85
2018-06-15T12:07:49.517Z,16.62
2018-06-15T12:10:18.369Z,16.60
2018-06-15T12:12:47.275Z,15.32
2018-06-15T12:15:16.153Z,16.67
2018-06-15T12:17:45.032Z,16.15
2018-06-15T12:20:13.902Z,13.03
2018-06-15T12:22:42.759Z,12.00
2018-06-15T12:25:11.610Z,11.97
2018-06-15T12:27:40.687Z,12.45
2018-06-15T12:30:09.624Z,14.28
2018-06-15T12:32:38.574Z,11.68
2018-06-15T12:35:07.489Z,11.63
2018-06-15T12:37:36.380Z,14.30
2018-06-15T12:40:05.363Z,11.25
2018-06-15T12:42:34.251Z,13.45
2018-06-15T12:45:03.206Z,15.05
2018-06-15T12:47:32.032Z,12.28
2018-06-15T12:50:01.509Z,14.07
2018-06-15T12:52:30.917Z,10.93
2018-06-15T12:55:00.151Z,10.40
2018-06-15T12:57:29.333Z,10.98
2018-06-15T12:59:58.415Z,14.28
2018-06-15T13:02:27.957Z,13.22
2018-06-15T13:04:57.213Z,12.90
2018-06-15T13:07:26.484Z,13.50
2018-06-15T13:09:55.662Z,12.82
2018-06-15T13:12:24.892Z,14.65
2018-06-15T13:14:54.027Z,10.38
2018-06-15T13:17:25.288Z,11.38
2018-06-15T13:19:57.651Z,15.68
2018-06-15T13:22:26.739Z,12.00
2018-06-15T13:24:55.936Z,9.70
2018-06-15T13:27:25.044Z,17.48
2018-06-15T13:29:54.124Z,14.73
2018-06-15T13:32:23.556Z,13.32
2018-06-15T13:34:52.683Z,11.65
2018-06-15T13:37:22.753Z,11.00
2018-06-15T13:39:52.120Z,12.90
2018-06-15T13:42:23.806Z,12.35
2018-06-15T13:44:53.109Z,9.45
2018-06-15T13:47:22.267Z,10.45
2018-06-15T13:49:51.539Z,13.93
2018-06-15T13:52:20.555Z,13.50
2018-06-15T13:54:52.715Z,15.10
2018-06-15T13:57:21.757Z,13.00
2018-06-15T13:59:51.353Z,17.77
2018-06-15T14:02:20.252Z,13.05
2018-06-15T14:04:49.567Z,11.65
2018-06-15T14:07:21.351Z,11.05
2018-06-15T14:09:50.707Z,13.30
2018-06-15T14:12:19.814Z,9.40
2018-06-15T14:14:48.920Z,8.08
2018-06-15T14:17:18.022Z,8.73
2018-06-15T14:19:47.109Z,7.42
2018-06-15T14:22:17.061Z,8.48
2018-06-15T14:24:46.498Z,11.97
2018-06-15T14:27:15.569Z,11.00
2018-06-15T14:29:44.923Z,11.68
2018-06-15T14:32:14.263Z,8.88
2018-06-15T14:34:44.573Z,10.20
2018-06-15T14:37:16.539Z,12.37
2018-06-15T14:39:42.692Z,12.25
2018-06-15T14:46:18.135Z,11.12
2018-06-15T14:49:30.036Z,9.10
2018-06-15T14:52:23.232Z,1628.45
2018-06-15T14:55:22.233Z,1973.30
2018-06-15T14:58:11.581Z,264.25
2018-06-15T15:01:00.482Z,1999.90
2018-06-15T15:03:44.208Z,1999.90
2018-06-15T15:06:20.529Z,1999.90
2018-06-15T15:09:10.302Z,1344.05
2018-06-15T15:11:56.381Z,978.52
2018-06-15T15:14:38.243Z,1086.83
2018-06-15T15:17:26.745Z,17.02
2018-06-15T15:19:57.634Z,14.25
2018-06-15T15:22:37.947Z,11.88
2018-06-15T15:25:10.519Z,10.58
2018-06-15T15:27:54.991Z,10.10
2018-06-15T15:30:43.388Z,11.93
2018-06-15T15:33:36.026Z,15.03
2018-06-15T15:36:26.031Z,13.20
2018-06-15T15:39:12.125Z,10.90
2018-06-15T15:42:00.274Z,12.55
2018-06-15T15:44:37.491Z,21.35
2018-06-15T15:47:18.090Z,21.02
2018-06-15T15:49:58.918Z,77.67
2018-06-15T15:52:31.388Z,18.50
2018-06-15T15:55:02.850Z,36.98
2018-06-15T15:58:06.578Z,25.27
2018-06-15T16:01:01.698Z,12.82
2018-06-15T16:03:41.353Z,678.02
2018-06-15T16:06:23.813Z,908.47
2018-06-15T16:09:00.661Z,1151.80
2018-06-15T16:11:42.831Z,1961.35
2018-06-15T16:14:14.635Z,1021.05
2018-06-15T16:16:51.825Z,130.65
2018-06-15T16:19:45.447Z,93.70
2018-06-15T16:22:43.186Z,99.20
2018-06-15T16:25:25.365Z,25.25
2018-06-15T16:27:59.997Z,14.53
2018-06-15T16:30:34.984Z,18.65
2018-06-15T16:33:08.508Z,114.92
2018-06-15T16:38:44.792Z,95.45
2018-06-15T16:41:13.980Z,58.10
2018-06-15T16:43:43.430Z,16.82
2018-06-15T16:46:12.713Z,11.53
2018-06-15T16:48:42.135Z,24.37
2018-06-15T16:51:11.435Z,13.60
2018-06-15T16:53:42.079Z,21.12
2018-06-15T16:56:11.268Z,636.80
2018-06-15T16:58:40.669Z,775.53
2018-06-15T17:01:10.082Z,1024.83
2018-06-15T17:03:39.403Z,318.07
2018-06-15T17:06:08.809Z,661.75
2018-06-15T17:08:38.168Z,139.53
2018-06-15T17:11:07.465Z,824.67
2018-06-15T17:13:39.046Z,601.15
2018-06-15T17:16:08.665Z,646.43
2018-06-15T17:18:38.220Z,215.75
2018-06-15T17:21:07.295Z,384.25
2018-06-15T17:23:36.432Z,436.60
2018-06-15T17:26:05.600Z,452.73
2018-06-15T17:28:35.023Z,218.25
2018-06-15T17:31:06.343Z,205.43
2018-06-15T17:33:35.556Z,282.90
2018-06-15T17:36:04.775Z,358.17
2018-06-15T17:38:34.295Z,43.70
2018-06-15T17:41:03.802Z,53.23
2018-06-15T17:43:33.016Z,176.55
2018-06-15T17:46:05.278Z,258.87
2018-06-15T17:48:34.745Z,176.95
2018-06-15T17:51:05.374Z,561.92
2018-06-15T17:53:34.397Z,95.83
2018-06-15T17:56:06.335Z,178.12
2018-06-15T17:58:35.821Z,51.08
2018-06-15T18:01:05.667Z,40.40
2018-06-15T18:03:35.075Z,34.95
2018-06-15T18:06:04.205Z,31.07
2018-06-15T18:08:33.479Z,49.40
2018-06-15T18:11:02.789Z,20.80
2018-06-15T18:13:32.042Z,64.27
2018-06-15T18:16:01.352Z,17.77
2018-06-15T18:18:30.621Z,13.63
2018-06-15T18:21:00.055Z,12.43
2018-06-15T18:23:29.057Z,137.68
2018-06-15T18:25:58.326Z,90.95
2018-06-15T18:28:27.660Z,15.65
2018-06-15T18:30:56.850Z,393.70
2018-06-15T18:33:26.737Z,77.25
2018-06-15T18:35:59.542Z,1376.97
2018-06-15T18:38:28.937Z,666.58
2018-06-15T18:41:00.830Z,49.50
2018-06-15T18:43:30.089Z,55.80
2018-06-15T18:45:59.300Z,51.87
2018-06-15T18:48:28.631Z,40.87
2018-06-15T18:50:57.681Z,12.13
2018-06-15T18:53:27.203Z,16.77
2018-06-15T18:55:58.122Z,12.20
2018-06-15T18:58:27.599Z,12.73
2018-06-15T19:00:57.271Z,11.55
2018-06-15T19:03:26.670Z,14.27
2018-06-15T19:06:01.033Z,20.80
2018-06-15T19:08:30.523Z,11.20
2018-06-15T19:10:59.644Z,19.87
2018-06-15T19:13:29.264Z,12.63
2018-06-15T19:15:59.071Z,13.63
2018-06-15T19:18:28.553Z,92.13
2018-06-15T19:20:59.322Z,15.80
2018-06-15T19:23:28.683Z,12.47
2018-06-15T19:25:57.877Z,15.33
2018-06-15T19:28:27.031Z,14.67
2018-06-15T19:30:56.166Z,26.50
2018-06-15T19:33:25.365Z,39.47
2018-06-15T19:35:54.798Z,89.73
2018-06-15T19:38:24.218Z,13.80
2018-06-15T19:40:53.663Z,13.50
2018-06-15T19:43:22.890Z,112.13
2018-06-15T19:45:54.679Z,135.70
2018-06-15T19:48:24.503Z,26.93
2018-06-15T19:50:53.770Z,13.17
2018-06-15T19:53:22.951Z,42.93
2018-06-15T19:55:52.302Z,18.97
2018-06-15T19:58:21.518Z,20.20
2018-06-15T20:00:50.642Z,16.43
2018-06-15T20:03:19.715Z,13.73
2018-06-15T20:05:49.272Z,26.53
2018-06-15T20:08:18.419Z,12.27
2018-06-15T20:10:47.707Z,13.77
2018-06-15T20:13:16.685Z,14.20
2018-06-15T20:15:46.022Z,13.80
2018-06-15T20:18:15.394Z,16.17
2018-06-15T20:20:47.646Z,15.07
2018-06-15T20:23:17.163Z,13.60
2018-06-15T20:25:48.751Z,13.80
2018-06-15T20:28:18.281Z,13.33
2018-06-15T20:30:47.693Z,13.72
2018-06-15T20:33:16.505Z,11.73
2018-06-15T20:35:45.419Z,13.57
2018-06-15T20:38:14.308Z,15.87
2018-06-15T20:40:43.200Z,14.57
2018-06-15T20:43:12.376Z,14.93
2018-06-15T20:45:41.223Z,16.67
2018-06-15T20:48:10.072Z,12.23
2018-06-15T20:50:39.069Z,14.07
2018-06-15T20:53:07.950Z,17.13
2018-06-15T20:55:43.083Z,13.93
2018-06-15T20:58:11.979Z,17.30
2018-06-15T21:00:40.849Z,13.27
2018-06-15T21:03:09.714Z,16.63
2018-06-15T21:05:38.650Z,15.13
2018-06-15T21:08:07.585Z,16.20
2018-06-15T21:10:36.812Z,16.87
2018-06-15T21:13:05.970Z,12.43
2018-06-15T21:15:34.890Z,15.33
2018-06-15T21:18:03.863Z,13.70
2018-06-15T21:20:32.733Z,14.33
2018-06-15T21:23:01.641Z,14.40
2018-06-15T21:25:33.129Z,14.07
2018-06-15T21:28:01.966Z,14.40
2018-06-15T21:30:30.899Z,11.87
2018-06-15T21:32:59.789Z,15.43
2018-06-15T21:35:28.662Z,14.97
2018-06-15T21:37:57.690Z,12.67
2018-06-15T21:40:26.548Z,14.63
2018-06-15T21:42:55.445Z,15.63
2018-06-15T21:45:24.313Z,17.70
2018-06-15T21:47:53.197Z,16.43
2018-06-15T21:50:22.137Z,13.83
2018-06-15T21:52:51.053Z,16.13
2018-06-15T21:55:20.001Z,16.37
2018-06-15T21:57:48.766Z,15.37
2018-06-15T22:00:17.705Z,15.70
2018-06-15T22:02:46.580Z,14.40
2018-06-15T22:05:15.447Z,15.90
2018-06-15T22:07:44.307Z,17.60
2018-06-15T22:10:13.162Z,17.30
2018-06-15T22:12:42.120Z,28.13
2018-06-15T22:15:11.117Z,14.23
2018-06-15T22:17:40.104Z,15.97
2018-06-15T22:20:11.412Z,14.17
2018-06-15T22:22:40.250Z,13.77
2018-06-15T22:25:09.167Z,14.23
2018-06-15T22:27:38.462Z,14.87
2018-06-15T22:30:07.860Z,15.70
2018-06-15T22:32:36.752Z,22.60
2018-06-15T22:35:05.895Z,16.33
2018-06-15T22:37:34.834Z,16.80
2018-06-15T22:40:03.708Z,14.33
2018-06-15T22:42:34.260Z,15.53
2018-06-15T22:45:03.197Z,17.40
2018-06-15T22:47:32.061Z,15.20
2018-06-15T22:50:00.921Z,15.53
2018-06-15T22:52:29.781Z,16.67
2018-06-15T22:54:58.716Z,15.20
2018-06-15T22:57:27.478Z,17.43
2018-06-15T22:59:56.360Z,14.63
2018-06-15T23:02:25.276Z,16.07
2018-06-15T23:04:57.467Z,15.97
2018-06-15T23:07:26.365Z,15.68
2018-06-15T23:09:55.283Z,14.23
2018-06-15T23:12:24.130Z,16.63
2018-06-15T23:14:52.962Z,16.03
2018-06-15T23:17:21.846Z,18.17
2018-06-15T23:19:50.740Z,15.80
2018-06-15T23:22:19.623Z,30.97
2018-06-15T23:24:48.584Z,20.17
2018-06-15T23:27:23.707Z,20.27
2018-06-15T23:29:52.586Z,17.00
2018-06-15T23:32:21.441Z,19.13
2018-06-15T23:34:50.873Z,14.93
2018-06-15T23:37:19.743Z,18.67
2018-06-15T23:39:48.611Z,18.10
2018-06-15T23:42:17.518Z,15.30
2018-06-15T23:44:46.339Z,16.87
2018-06-15T23:47:15.220Z,18.47
2018-06-15T23:49:47.198Z,17.10
2018-06-15T23:52:16.100Z,14.30
2018-06-15T23:54:44.960Z,16.83
2018-06-15T23:57:13.843Z,14.50
2018-06-15T23:59:42.729Z,16.27
